Weather observations for the past three days for
Monroe, Monroe Airport
Metric (Imperial)
Date Time (edt) Wind (kph) Vis. (km) Weather Sky Cond. Temperature (ºC) Relative Humidity Wind Chill (°C) Heat Index (°C) Pressure Precipitation (cm)
Air Dwpt 6 hour altimeter (cm) sea level (mb) 1 hr 3 hr 6 hr
Max. Min.
06 11:53 SW 24 G 39 16.09 Fair CLR 23.3 15.6 62% 76.12 1015.0
06 10:53 SW 24 G 41 16.09 Fair CLR 21.1 15 68% 76.1 1014.6
06 09:53 SW 13 16.09 Fair CLR 20 14.4 70% 76.07 1014.5
06 08:53 SW 19 G 30 16.09 A Few Clouds FEW090 18.3 13.3 73% 76.12 1015.1
06 07:53 SW 15 16.09 Fair CLR 17.8 12.8 17.8 16.1 73% 76.1 1014.8
06 06:53 SW 17 16.09 Fair CLR 16.7 12.8 78% 76.05 1013.9
06 05:53 SW 11 G 31 16.09 Fair CLR 16.7 12.8 78% 76.02 1013.7
06 04:53 SW 17 G 33 16.09 Mostly Cloudy BKN090 17.2 12.8 76% 76.05 1014.1
06 03:53 SW 13 16.09 Partly Cloudy SCT090 17.2 12.2 73% 76.1 1014.6
06 02:53 SW 11 G 28 16.09 Fair CLR 17.8 12.8 73% 76.07 1014.3
06 01:53 Vrbl 11 16.09 Fair CLR 17.8 12.2 23.9 17.8 70% 76.12 1014.8
06 00:53 S 13 16.09 Fair CLR 18.3 12.2 68% 76.15 1015.2
05 23:53 S 15 16.09 Fair CLR 19.4 11.7 61% 76.15 1015.3
05 22:53 S 13 16.09 Fair CLR 20 11.7 59% 76.12 1014.9
05 21:53 Vrbl 6 16.09 Fair CLR 20.6 9.4 49% 76.12 1015.1
05 20:53 S 6 16.09 Fair CLR 21.7 8.9 44% 76.07 1014.4
05 19:53 S 9 16.09 A Few Clouds FEW075 23.9 8.9 27.2 23.9 39% 25 76.05 1014.0
05 18:53 S 11 16.09 Fair CLR 25 8.9 36% 26 76.02 1014.0
05 17:53 SW 22 16.09 A Few Clouds FEW070 26.1 9.4 35% 26 76.05 1014.3
05 16:53 S 15 G 26 16.09 A Few Clouds FEW075 25.6 9.4 36% 26 76.07 1014.6
05 15:53 Vrbl 9 16.09 Partly Cloudy SCT075 25.6 8.9 35% 26 76.12 1015.0
05 14:53 SW 20 16.09 A Few Clouds FEW070 26.7 8.9 33% 26 76.17 1015.7
05 13:53 SW 19 G 35 16.09 Fair CLR 26.1 8.9 26.1 14.4 34% 26 76.23 1016.4
05 12:53 SW 9 G 35 16.09 Fair CLR 25.6 9.4 36% 26 76.25 1016.7
05 11:53 W 15 16.09 Fair CLR 23.9 12.2 48% 25 76.3 1017.4
05 10:53 SW 17 16.09 Fair CLR 21.7 12.8 57% 76.3 1017.6
05 09:53 W 22 16.09 Fair CLR 20 12.8 63% 76.3 1017.6
05 08:53 SW 20 16.09 Fair CLR 17.2 11.7 70% 76.3 1017.7
05 07:53 SW 9 16.09 Fair CLR 14.4 10.6 15.6 11.1 78% 76.28 1017.3
05 06:53 Calm 16.09 Fair CLR 11.7 9.4 86% 76.25 1017.1
05 05:53 Calm 16.09 Fair CLR 12.2 9.4 83% 76.2 1016.4
05 04:53 SW 9 16.09 Fair CLR 13.9 9.4 74% 76.17 1015.9
05 03:53 SW 13 16.09 Fair CLR 14.4 8.9 70% 76.17 1015.7
05 02:53 SW 13 16.09 Fair CLR 15 8.9 67% 76.15 1015.5
05 01:53 SW 13 16.09 Fair CLR 15.6 8.9 22.2 15.6 65% 76.17 1015.8
05 00:53 SW 15 16.09 Fair CLR 16.7 8.3 58% 76.17 1016.0
04 23:53 S 15 G 30 16.09 Fair CLR 17.8 7.8 52% 76.2 1016.1
04 22:53 S 11 16.09 Fair CLR 18.9 6.1 43% 76.17 1015.9
04 21:53 S 7 16.09 Fair CLR 18.9 5.6 42% 76.15 1015.7
04 20:53 S 7 16.09 Fair CLR 20 2.8 32% 76.1 1015.1
04 19:53 S 9 16.09 Fair CLR 22.2 2.8 26.1 22.2 28% 76.07 1014.8
04 18:53 S 13 G 35 16.09 Fair CLR 24.4 4.4 27% 25 76.05 1014.4
04 17:53 Vrbl 9 G 31 16.09 Fair CLR 25.6 4.4 26% 25 76.05 1014.2
04 16:53 SW 19 G 28 16.09 Fair CLR 25.6 2.8 23% 25 76.05 1014.4
04 15:53 Calm 16.09 Fair CLR 25 3.9 26% 25 76.1 1015.0
04 14:53 Calm 16.09 Fair CLR 24.4 4.4 27% 25 76.15 1015.8
04 13:53 Vrbl 6 16.09 Fair CLR 23.3 5 24.4 10.6 31% 76.2 1016.4
04 12:53 SW 13 16.09 Fair CLR 22.8 4.4 30% 76.25 1017.0
04 11:53 Vrbl 9 16.09 Fair CLR 21.7 5.6 35% 76.3 1018.0
04 10:53 Vrbl 9 16.09 Fair CLR 20 6.1 40% 76.33 1018.1
04 09:53 Vrbl 6 16.09 Fair CLR 17.2 7.8 54% 76.33 1018.4
04 08:53 W 11 16.09 Fair CLR 13.9 7.8 67% 76.3 1018.0
04 07:53 SW 9 16.09 Fair CLR 10.6 8.3 13.3 7.8 86% 76.33 1018.3
04 06:53 SW 7 16.09 Fair CLR 8.3 6.7 90% 7 76.28 1017.9
04 05:53 SW 7 16.09 Fair CLR 8.9 6.1 83% 8 76.3 1017.9
04 04:53 SW 9 16.09 Fair CLR 10 6.1 77% 9 76.28 1017.5
04 02:53 Calm 16.09 Fair CLR 11.1 4.4 64% 76.28 1017.5
04 01:53 S 7 16.09 Fair CLR 13.3 4.4 17.2 10.6 55% 76.25 1017.3
04 00:53 S 7 16.09 Fair CLR 11.7 4.4 61% 76.3 1018.0
03 23:53 SW 9 16.09 Fair CLR 11.7 5 64% 76.33 1018.3
03 22:53 S 11 16.09 Fair CLR 14.4 4.4 51% 76.3 1018.0
03 21:53 S 7 16.09 Fair CLR 13.9 5 55% 76.28 1017.6
03 20:53 S 6 16.09 Fair CLR 15 4.4 49% 76.23 1017.1
03 19:53 S 6 16.09 Fair CLR 17.2 3.9 20.6 17.2 41% 76.2 1016.8
03 18:53 SW 13 16.09 Fair CLR 19.4 2.2 32% 76.2 1017.0
03 17:53 W 13 16.09 Fair CLR 20 2.2 31% 76.23 1017.1
03 16:53 W 17 16.09 Fair CLR 20.6 2.8 31% 76.23 1017.4
03 15:53 Calm 16.09 Fair CLR 19.4 2.8 33% 76.28 1018.1
03 14:53 Vrbl 9 G 30 16.09 Fair CLR 18.9 2.8 34% 76.38 1019.2
03 13:53 SW 15 16.09 Fair CLR 18.3 2.8 18.9 10 36% 76.4 1019.7
03 12:53 W 13 G 33 16.09 Fair CLR 17.8 2.2 35% 76.48 1020.6
Date Time (edt) Wind (kph) Vis. (km) Weather Sky Cond. Air Dwpt Max. Min. Relative Humidity Wind Chill (°C) Heat Index (°C) altimeter (cm) sea level (mb) 1 hr 3 hr 6 hr
6 hour
Temperature (ºC) Pressure Precipitation (cm)